EmailTwitter


Observations de surface / France / LFPO (07149)

Régions: Québec | Canada | États-Unis | Europe | France | UK | Elsewhere
Station
Affichage
Infos & localisation pour LFPO (07149) | Aide pour décoder les METARs

Observations prises le 2017-03-26 à 14H30 UTC à PARIS/ORLY, FR (LFPO)

Etat du ciel: ciel variable.

Température: 17.0 Celsius

Point de rosée: 7.0 Celsius

Humidité relative: 52%

Vents: Est à 15 km/h ou 8 noeuds.

Pression au niveau moyen de la mer: 102.00 kilopascals.

Visibilité horizontale: 6.21 milles terrestres ou 9.94 kilomètres.

Observation METAR:

LFPO 261430Z 09008KT 040V150 9999 FEW040 SCT260 17/07 Q1020 NOSIG=